<?xml version="1.0" encoding="UTF-8" standalone="no" ?>
<gpx xmlns="http://www.topografix.com/GPX/1/1" xmlns:xsi="http://www.w3.org/2001/XMLSchema-instance" xsi:schemaLocation="http://www.topografix.com/GPX/1/1 http://www.topografix.com/GPX/1/1/gpx.xsd" version="1.1" creator="VisuGPX - https://www.visugpx.com">
  <metadata>
    <name>Glaris-Engelberg(tout)</name>
  </metadata>
  <trk>
    <name><![CDATA[Glaris-Engelberg(tout)_2]]></name>
    <extensions>
      <line xmlns="http://www.topografix.com/GPX/gpx_style/0/2">
        <color>00FF00</color>
        <width>4</width>
      </line>
    </extensions>
    <trkseg>
      <trkpt lat="47.02507" lon="8.94343">
        <ele>817</ele>
        <time>2021-08-03T08:17:10.635Z</time>
      </trkpt>
      <trkpt lat="47.02507" lon="8.94342">
        <ele>817</ele>
        <time>2021-08-03T08:17:11.635Z</time>
      </trkpt>
      <trkpt lat="47.02507" lon="8.94341">
        <ele>818</ele>
        <time>2021-08-03T08:17:12.635Z</time>
      </trkpt>
      <trkpt lat="47.02506" lon="8.9434">
        <ele>819</ele>
        <time>2021-08-03T08:17:13.635Z</time>
      </trkpt>
      <trkpt lat="47.02506" lon="8.94338">
        <ele>820</ele>
        <time>2021-08-03T08:17:14.636Z</time>
      </trkpt>
      <trkpt lat="47.02505" lon="8.94337">
        <ele>820</ele>
        <time>2021-08-03T08:17:15.635Z</time>
      </trkpt>
      <trkpt lat="47.02505" lon="8.94336">
        <ele>821</ele>
        <time>2021-08-03T08:17:16.636Z</time>
      </trkpt>
      <trkpt lat="47.02504" lon="8.94335">
        <ele>821</ele>
        <time>2021-08-03T08:17:17.635Z</time>
      </trkpt>
      <trkpt lat="47.02503" lon="8.94334">
        <ele>822</ele>
        <time>2021-08-03T08:17:18.635Z</time>
      </trkpt>
      <trkpt lat="47.02503" lon="8.94333">
        <ele>823</ele>
        <time>2021-08-03T08:17:19.635Z</time>
      </trkpt>
      <trkpt lat="47.02502" lon="8.94331">
        <ele>823</ele>
        <time>2021-08-03T08:17:20.635Z</time>
      </trkpt>
      <trkpt lat="47.02502" lon="8.94329">
        <ele>824</ele>
        <time>2021-08-03T08:17:21.635Z</time>
      </trkpt>
      <trkpt lat="47.02501" lon="8.94329">
        <ele>824</ele>
        <time>2021-08-03T08:17:22.635Z</time>
      </trkpt>
      <trkpt lat="47.02502" lon="8.94328">
        <ele>824</ele>
        <time>2021-08-03T08:17:23.635Z</time>
      </trkpt>
      <trkpt lat="47.02502" lon="8.94328">
        <ele>825</ele>
        <time>2021-08-03T08:17:24.636Z</time>
      </trkpt>
      <trkpt lat="47.02503" lon="8.94328">
        <ele>825</ele>
        <time>2021-08-03T08:17:25.635Z</time>
      </trkpt>
      <trkpt lat="47.02503" lon="8.94327">
        <ele>825</ele>
        <time>2021-08-03T08:17:26.635Z</time>
      </trkpt>
      <trkpt lat="47.02503" lon="8.94327">
        <ele>826</ele>
        <time>2021-08-03T08:17:27.635Z</time>
      </trkpt>
      <trkpt lat="47.02503" lon="8.94327">
        <ele>826</ele>
        <time>2021-08-03T08:17:28.635Z</time>
      </trkpt>
      <trkpt lat="47.02503" lon="8.94326">
        <ele>826</ele>
        <time>2021-08-03T08:17:29.635Z</time>
      </trkpt>
      <trkpt lat="47.02503" lon="8.94325">
        <ele>827</ele>
        <time>2021-08-03T08:17:30.635Z</time>
      </trkpt>
      <trkpt lat="47.02503" lon="8.94324">
        <ele>827</ele>
        <time>2021-08-03T08:17:31.635Z</time>
      </trkpt>
      <trkpt lat="47.02503" lon="8.94324">
        <ele>827</ele>
        <time>2021-08-03T08:17:32.636Z</time>
      </trkpt>
      <trkpt lat="47.02503" lon="8.94324">
        <ele>827</ele>
        <time>2021-08-03T08:17:33.636Z</time>
      </trkpt>
      <trkpt lat="47.02502" lon="8.94323">
        <ele>828</ele>
        <time>2021-08-03T08:17:34.635Z</time>
      </trkpt>
      <trkpt lat="47.02501" lon="8.94321">
        <ele>828</ele>
        <time>2021-08-03T08:17:35.635Z</time>
      </trkpt>
      <trkpt lat="47.025" lon="8.9432">
        <ele>828</ele>
        <time>2021-08-03T08:17:36.635Z</time>
      </trkpt>
      <trkpt lat="47.025" lon="8.94319">
        <ele>828</ele>
        <time>2021-08-03T08:17:37.635Z</time>
      </trkpt>
      <trkpt lat="47.02499" lon="8.94317">
        <ele>828</ele>
        <time>2021-08-03T08:17:38.635Z</time>
      </trkpt>
      <trkpt lat="47.02499" lon="8.94317">
        <ele>829</ele>
        <time>2021-08-03T08:17:39.636Z</time>
      </trkpt>
      <trkpt lat="47.025" lon="8.94318">
        <ele>829</ele>
        <time>2021-08-03T08:17:40.635Z</time>
      </trkpt>
      <trkpt lat="47.02501" lon="8.94321">
        <ele>829</ele>
        <time>2021-08-03T08:17:41.635Z</time>
      </trkpt>
      <trkpt lat="47.02502" lon="8.94323">
        <ele>829</ele>
        <time>2021-08-03T08:17:42.635Z</time>
      </trkpt>
      <trkpt lat="47.02504" lon="8.94325">
        <ele>830</ele>
        <time>2021-08-03T08:17:43.635Z</time>
      </trkpt>
      <trkpt lat="47.02504" lon="8.94327">
        <ele>830</ele>
        <time>2021-08-03T08:17:44.635Z</time>
      </trkpt>
      <trkpt lat="47.02505" lon="8.94329">
        <ele>830</ele>
        <time>2021-08-03T08:17:45.635Z</time>
      </trkpt>
      <trkpt lat="47.02504" lon="8.94329">
        <ele>830</ele>
        <time>2021-08-03T08:17:46.636Z</time>
      </trkpt>
      <trkpt lat="47.02504" lon="8.9433">
        <ele>830</ele>
        <time>2021-08-03T08:17:47.636Z</time>
      </trkpt>
      <trkpt lat="47.02504" lon="8.9433">
        <ele>830</ele>
        <time>2021-08-03T08:17:48.635Z</time>
      </trkpt>
      <trkpt lat="47.02504" lon="8.94331">
        <ele>830</ele>
        <time>2021-08-03T08:17:49.635Z</time>
      </trkpt>
      <trkpt lat="47.02503" lon="8.94331">
        <ele>830</ele>
        <time>2021-08-03T08:17:50.635Z</time>
      </trkpt>
      <trkpt lat="47.02503" lon="8.94331">
        <ele>830</ele>
        <time>2021-08-03T08:17:51.636Z</time>
      </trkpt>
      <trkpt lat="47.02503" lon="8.9433">
        <ele>831</ele>
        <time>2021-08-03T08:17:52.635Z</time>
      </trkpt>
      <trkpt lat="47.02503" lon="8.94331">
        <ele>831</ele>
        <time>2021-08-03T08:17:53.635Z</time>
      </trkpt>
      <trkpt lat="47.02503" lon="8.94331">
        <ele>831</ele>
        <time>2021-08-03T08:17:54.635Z</time>
      </trkpt>
      <trkpt lat="47.02503" lon="8.94332">
        <ele>832</ele>
        <time>2021-08-03T08:17:55.635Z</time>
      </trkpt>
      <trkpt lat="47.02504" lon="8.94332">
        <ele>832</ele>
        <time>2021-08-03T08:17:56.635Z</time>
      </trkpt>
      <trkpt lat="47.02504" lon="8.94333">
        <ele>832</ele>
        <time>2021-08-03T08:17:57.635Z</time>
      </trkpt>
      <trkpt lat="47.02504" lon="8.94334">
        <ele>832</ele>
        <time>2021-08-03T08:17:58.635Z</time>
      </trkpt>
      <trkpt lat="47.02505" lon="8.94335">
        <ele>833</ele>
        <time>2021-08-03T08:17:59.636Z</time>
      </trkpt>
      <trkpt lat="47.02505" lon="8.94336">
        <ele>833</ele>
        <time>2021-08-03T08:18:00.635Z</time>
      </trkpt>
      <trkpt lat="47.02505" lon="8.94337">
        <ele>833</ele>
        <time>2021-08-03T08:18:01.635Z</time>
      </trkpt>
      <trkpt lat="47.02505" lon="8.94338">
        <ele>833</ele>
        <time>2021-08-03T08:18:02.636Z</time>
      </trkpt>
      <trkpt lat="47.02505" lon="8.94339">
        <ele>834</ele>
        <time>2021-08-03T08:18:03.635Z</time>
      </trkpt>
      <trkpt lat="47.02506" lon="8.94339">
        <ele>834</ele>
        <time>2021-08-03T08:18:04.635Z</time>
      </trkpt>
      <trkpt lat="47.02506" lon="8.9434">
        <ele>834</ele>
        <time>2021-08-03T08:18:05.635Z</time>
      </trkpt>
      <trkpt lat="47.02508" lon="8.9434">
        <ele>834</ele>
        <time>2021-08-03T08:18:06.635Z</time>
      </trkpt>
      <trkpt lat="47.02509" lon="8.9434">
        <ele>835</ele>
        <time>2021-08-03T08:18:07.635Z</time>
      </trkpt>
      <trkpt lat="47.02509" lon="8.94339">
        <ele>835</ele>
        <time>2021-08-03T08:18:08.635Z</time>
      </trkpt>
      <trkpt lat="47.0251" lon="8.94338">
        <ele>835</ele>
        <time>2021-08-03T08:18:09.635Z</time>
      </trkpt>
      <trkpt lat="47.02509" lon="8.94337">
        <ele>835</ele>
        <time>2021-08-03T08:18:10.635Z</time>
      </trkpt>
      <trkpt lat="47.02509" lon="8.94336">
        <ele>835</ele>
        <time>2021-08-03T08:18:11.635Z</time>
      </trkpt>
      <trkpt lat="47.02509" lon="8.94336">
        <ele>835</ele>
        <time>2021-08-03T08:18:12.635Z</time>
      </trkpt>
      <trkpt lat="47.02509" lon="8.94335">
        <ele>835</ele>
        <time>2021-08-03T08:18:13.635Z</time>
      </trkpt>
      <trkpt lat="47.0251" lon="8.94334">
        <ele>836</ele>
        <time>2021-08-03T08:18:14.635Z</time>
      </trkpt>
      <trkpt lat="47.0251" lon="8.94333">
        <ele>836</ele>
        <time>2021-08-03T08:18:15.635Z</time>
      </trkpt>
      <trkpt lat="47.02511" lon="8.94333">
        <ele>836</ele>
        <time>2021-08-03T08:18:16.636Z</time>
      </trkpt>
      <trkpt lat="47.02511" lon="8.94333">
        <ele>836</ele>
        <time>2021-08-03T08:18:17.635Z</time>
      </trkpt>
      <trkpt lat="47.02511" lon="8.94331">
        <ele>836</ele>
        <time>2021-08-03T08:18:18.636Z</time>
      </trkpt>
      <trkpt lat="47.02511" lon="8.9433">
        <ele>836</ele>
        <time>2021-08-03T08:18:19.635Z</time>
      </trkpt>
      <trkpt lat="47.02511" lon="8.94329">
        <ele>836</ele>
        <time>2021-08-03T08:18:20.635Z</time>
      </trkpt>
      <trkpt lat="47.0251" lon="8.94328">
        <ele>836</ele>
        <time>2021-08-03T08:18:21.635Z</time>
      </trkpt>
      <trkpt lat="47.0251" lon="8.94327">
        <ele>836</ele>
        <time>2021-08-03T08:18:22.635Z</time>
      </trkpt>
      <trkpt lat="47.02509" lon="8.94325">
        <ele>836</ele>
        <time>2021-08-03T08:18:23.635Z</time>
      </trkpt>
      <trkpt lat="47.02509" lon="8.94324">
        <ele>837</ele>
        <time>2021-08-03T08:18:24.635Z</time>
      </trkpt>
      <trkpt lat="47.02509" lon="8.94322">
        <ele>837</ele>
        <time>2021-08-03T08:18:25.635Z</time>
      </trkpt>
      <trkpt lat="47.02509" lon="8.94321">
        <ele>837</ele>
        <time>2021-08-03T08:18:26.635Z</time>
      </trkpt>
      <trkpt lat="47.02509" lon="8.94319">
        <ele>837</ele>
        <time>2021-08-03T08:18:27.635Z</time>
      </trkpt>
      <trkpt lat="47.02509" lon="8.94318">
        <ele>837</ele>
        <time>2021-08-03T08:18:28.635Z</time>
      </trkpt>
      <trkpt lat="47.02509" lon="8.94316">
        <ele>837</ele>
        <time>2021-08-03T08:18:29.635Z</time>
      </trkpt>
      <trkpt lat="47.0251" lon="8.94315">
        <ele>837</ele>
        <time>2021-08-03T08:18:30.635Z</time>
      </trkpt>
      <trkpt lat="47.02511" lon="8.94314">
        <ele>837</ele>
        <time>2021-08-03T08:18:31.635Z</time>
      </trkpt>
      <trkpt lat="47.02511" lon="8.94312">
        <ele>837</ele>
        <time>2021-08-03T08:18:32.635Z</time>
      </trkpt>
      <trkpt lat="47.02511" lon="8.94312">
        <ele>837</ele>
        <time>2021-08-03T08:18:33.635Z</time>
      </trkpt>
      <trkpt lat="47.02512" lon="8.94309">
        <ele>838</ele>
        <time>2021-08-03T08:18:34.635Z</time>
      </trkpt>
      <trkpt lat="47.02512" lon="8.94308">
        <ele>838</ele>
        <time>2021-08-03T08:18:35.635Z</time>
      </trkpt>
      <trkpt lat="47.02513" lon="8.94307">
        <ele>838</ele>
        <time>2021-08-03T08:18:36.635Z</time>
      </trkpt>
      <trkpt lat="47.02513" lon="8.94307">
        <ele>838</ele>
        <time>2021-08-03T08:18:37.635Z</time>
      </trkpt>
      <trkpt lat="47.02513" lon="8.94306">
        <ele>838</ele>
        <time>2021-08-03T08:18:38.635Z</time>
      </trkpt>
      <trkpt lat="47.02515" lon="8.94304">
        <ele>838</ele>
        <time>2021-08-03T08:18:39.635Z</time>
      </trkpt>
      <trkpt lat="47.02515" lon="8.94302">
        <ele>838</ele>
        <time>2021-08-03T08:18:40.635Z</time>
      </trkpt>
      <trkpt lat="47.02515" lon="8.94301">
        <ele>839</ele>
        <time>2021-08-03T08:18:41.635Z</time>
      </trkpt>
      <trkpt lat="47.02515" lon="8.943">
        <ele>839</ele>
        <time>2021-08-03T08:18:42.635Z</time>
      </trkpt>
      <trkpt lat="47.02515" lon="8.94299">
        <ele>839</ele>
        <time>2021-08-03T08:18:43.636Z</time>
      </trkpt>
      <trkpt lat="47.02515" lon="8.94298">
        <ele>839</ele>
        <time>2021-08-03T08:18:44.635Z</time>
      </trkpt>
      <trkpt lat="47.02516" lon="8.94297">
        <ele>839</ele>
        <time>2021-08-03T08:18:45.635Z</time>
      </trkpt>
      <trkpt lat="47.02516" lon="8.94295">
        <ele>839</ele>
        <time>2021-08-03T08:18:46.635Z</time>
      </trkpt>
      <trkpt lat="47.02515" lon="8.94293">
        <ele>839</ele>
        <time>2021-08-03T08:18:47.635Z</time>
      </trkpt>
      <trkpt lat="47.02515" lon="8.94293">
        <ele>839</ele>
        <time>2021-08-03T08:18:48.635Z</time>
      </trkpt>
      <trkpt lat="47.02516" lon="8.94292">
        <ele>840</ele>
        <time>2021-08-03T08:18:49.635Z</time>
      </trkpt>
      <trkpt lat="47.02517" lon="8.94292">
        <ele>840</ele>
        <time>2021-08-03T08:18:50.635Z</time>
      </trkpt>
      <trkpt lat="47.02516" lon="8.94292">
        <ele>840</ele>
        <time>2021-08-03T08:18:51.635Z</time>
      </trkpt>
      <trkpt lat="47.02516" lon="8.94291">
        <ele>841</ele>
        <time>2021-08-03T08:18:52.636Z</time>
      </trkpt>
      <trkpt lat="47.02515" lon="8.9429">
        <ele>841</ele>
        <time>2021-08-03T08:18:53.635Z</time>
      </trkpt>
      <trkpt lat="47.02515" lon="8.94288">
        <ele>841</ele>
        <time>2021-08-03T08:18:54.635Z</time>
      </trkpt>
      <trkpt lat="47.02514" lon="8.94286">
        <ele>841</ele>
        <time>2021-08-03T08:18:55.635Z</time>
      </trkpt>
      <trkpt lat="47.02513" lon="8.94284">
        <ele>841</ele>
        <time>2021-08-03T08:18:56.635Z</time>
      </trkpt>
      <trkpt lat="47.02513" lon="8.94281">
        <ele>841</ele>
        <time>2021-08-03T08:18:57.635Z</time>
      </trkpt>
      <trkpt lat="47.02512" lon="8.94279">
        <ele>842</ele>
        <time>2021-08-03T08:18:58.635Z</time>
      </trkpt>
      <trkpt lat="47.02511" lon="8.94277">
        <ele>842</ele>
        <time>2021-08-03T08:18:59.635Z</time>
      </trkpt>
      <trkpt lat="47.02511" lon="8.94275">
        <ele>842</ele>
        <time>2021-08-03T08:19:00.635Z</time>
      </trkpt>
      <trkpt lat="47.02511" lon="8.94273">
        <ele>842</ele>
        <time>2021-08-03T08:19:01.635Z</time>
      </trkpt>
      <trkpt lat="47.02511" lon="8.94273">
        <ele>842</ele>
        <time>2021-08-03T08:19:02.635Z</time>
      </trkpt>
      <trkpt lat="47.02511" lon="8.94272">
        <ele>842</ele>
        <time>2021-08-03T08:19:03.635Z</time>
      </trkpt>
      <trkpt lat="47.02512" lon="8.9427">
        <ele>842</ele>
        <time>2021-08-03T08:19:04.636Z</time>
      </trkpt>
      <trkpt lat="47.02514" lon="8.94271">
        <ele>842</ele>
        <time>2021-08-03T08:19:05.635Z</time>
      </trkpt>
      <trkpt lat="47.02514" lon="8.94271">
        <ele>842</ele>
        <time>2021-08-03T08:19:06.635Z</time>
      </trkpt>
      <trkpt lat="47.02514" lon="8.94271">
        <ele>842</ele>
        <time>2021-08-03T08:19:07.635Z</time>
      </trkpt>
      <trkpt lat="47.02515" lon="8.94271">
        <ele>843</ele>
        <time>2021-08-03T08:19:08.635Z</time>
      </trkpt>
      <trkpt lat="47.02515" lon="8.9427">
        <ele>843</ele>
        <time>2021-08-03T08:19:09.635Z</time>
      </trkpt>
      <trkpt lat="47.02515" lon="8.94268">
        <ele>843</ele>
        <time>2021-08-03T08:19:10.635Z</time>
      </trkpt>
      <trkpt lat="47.02515" lon="8.94265">
        <ele>843</ele>
        <time>2021-08-03T08:19:11.635Z</time>
      </trkpt>
      <trkpt lat="47.02514" lon="8.94263">
        <ele>843</ele>
        <time>2021-08-03T08:19:12.635Z</time>
      </trkpt>
      <trkpt lat="47.02513" lon="8.9426">
        <ele>844</ele>
        <time>2021-08-03T08:19:13.636Z</time>
      </trkpt>
      <trkpt lat="47.02513" lon="8.94257">
        <ele>844</ele>
        <time>2021-08-03T08:19:14.635Z</time>
      </trkpt>
      <trkpt lat="47.02513" lon="8.94253">
        <ele>844</ele>
        <time>2021-08-03T08:19:15.635Z</time>
      </trkpt>
      <trkpt lat="47.02513" lon="8.94253">
        <ele>845</ele>
        <time>2021-08-03T08:19:16.635Z</time>
      </trkpt>
      <trkpt lat="47.02512" lon="8.94251">
        <ele>845</ele>
        <time>2021-08-03T08:19:17.635Z</time>
      </trkpt>
      <trkpt lat="47.02512" lon="8.94248">
        <ele>845</ele>
        <time>2021-08-03T08:19:18.635Z</time>
      </trkpt>
      <trkpt lat="47.02512" lon="8.94246">
        <ele>846</ele>
        <time>2021-08-03T08:19:19.635Z</time>
      </trkpt>
      <trkpt lat="47.02512" lon="8.94243">
        <ele>847</ele>
        <time>2021-08-03T08:19:20.635Z</time>
      </trkpt>
      <trkpt lat="47.02513" lon="8.94239">
        <ele>848</ele>
        <time>2021-08-03T08:19:21.635Z</time>
      </trkpt>
      <trkpt lat="47.02513" lon="8.94239">
        <ele>848</ele>
        <time>2021-08-03T08:19:22.635Z</time>
      </trkpt>
      <trkpt lat="47.02513" lon="8.94238">
        <ele>848</ele>
        <time>2021-08-03T08:19:23.635Z</time>
      </trkpt>
      <trkpt lat="47.02513" lon="8.94236">
        <ele>849</ele>
        <time>2021-08-03T08:19:24.635Z</time>
      </trkpt>
      <trkpt lat="47.02514" lon="8.94233">
        <ele>850</ele>
        <time>2021-08-03T08:19:25.635Z</time>
      </trkpt>
      <trkpt lat="47.02514" lon="8.94233">
        <ele>850</ele>
        <time>2021-08-03T08:19:26.636Z</time>
      </trkpt>
      <trkpt lat="47.02514" lon="8.94231">
        <ele>850</ele>
        <time>2021-08-03T08:19:27.635Z</time>
      </trkpt>
      <trkpt lat="47.02515" lon="8.9423">
        <ele>851</ele>
        <time>2021-08-03T08:19:28.635Z</time>
      </trkpt>
      <trkpt lat="47.02515" lon="8.94226">
        <ele>852</ele>
        <time>2021-08-03T08:19:29.635Z</time>
      </trkpt>
      <trkpt lat="47.02515" lon="8.94224">
        <ele>852</ele>
        <time>2021-08-03T08:19:30.635Z</time>
      </trkpt>
      <trkpt lat="47.02515" lon="8.9422">
        <ele>853</ele>
        <time>2021-08-03T08:19:31.636Z</time>
      </trkpt>
      <trkpt lat="47.02515" lon="8.9422">
        <ele>853</ele>
        <time>2021-08-03T08:19:32.635Z</time>
      </trkpt>
      <trkpt lat="47.02514" lon="8.94214">
        <ele>853</ele>
        <time>2021-08-03T08:19:33.635Z</time>
      </trkpt>
      <trkpt lat="47.02514" lon="8.94214">
        <ele>853</ele>
        <time>2021-08-03T08:19:34.636Z</time>
      </trkpt>
      <trkpt lat="47.02514" lon="8.9421">
        <ele>854</ele>
        <time>2021-08-03T08:19:35.635Z</time>
      </trkpt>
      <trkpt lat="47.02514" lon="8.9421">
        <ele>854</ele>
        <time>2021-08-03T08:19:36.635Z</time>
      </trkpt>
      <trkpt lat="47.02514" lon="8.94207">
        <ele>855</ele>
        <time>2021-08-03T08:19:37.635Z</time>
      </trkpt>
      <trkpt lat="47.02514" lon="8.94207">
        <ele>855</ele>
        <time>2021-08-03T08:19:38.635Z</time>
      </trkpt>
      <trkpt lat="47.02516" lon="8.94206">
        <ele>855</ele>
        <time>2021-08-03T08:19:39.636Z</time>
      </trkpt>
      <trkpt lat="47.02516" lon="8.94206">
        <ele>855</ele>
        <time>2021-08-03T08:19:40.636Z</time>
      </trkpt>
      <trkpt lat="47.02516" lon="8.94203">
        <ele>856</ele>
        <time>2021-08-03T08:19:41.635Z</time>
      </trkpt>
      <trkpt lat="47.02516" lon="8.94203">
        <ele>856</ele>
        <time>2021-08-03T08:19:42.635Z</time>
      </trkpt>
      <trkpt lat="47.02516" lon="8.942">
        <ele>856</ele>
        <time>2021-08-03T08:19:43.635Z</time>
      </trkpt>
      <trkpt lat="47.02516" lon="8.94197">
        <ele>857</ele>
        <time>2021-08-03T08:19:44.636Z</time>
      </trkpt>
      <trkpt lat="47.02515" lon="8.94191">
        <ele>857</ele>
        <time>2021-08-03T08:19:45.635Z</time>
      </trkpt>
      <trkpt lat="47.02515" lon="8.94191">
        <ele>857</ele>
        <time>2021-08-03T08:19:46.635Z</time>
      </trkpt>
      <trkpt lat="47.02515" lon="8.94189">
        <ele>858</ele>
        <time>2021-08-03T08:19:47.635Z</time>
      </trkpt>
      <trkpt lat="47.02515" lon="8.94183">
        <ele>858</ele>
        <time>2021-08-03T08:19:48.635Z</time>
      </trkpt>
      <trkpt lat="47.02515" lon="8.94183">
        <ele>858</ele>
        <time>2021-08-03T08:19:49.635Z</time>
      </trkpt>
      <trkpt lat="47.02517" lon="8.9418">
        <ele>859</ele>
        <time>2021-08-03T08:19:50.635Z</time>
      </trkpt>
      <trkpt lat="47.02517" lon="8.94179">
        <ele>859</ele>
        <time>2021-08-03T08:19:51.635Z</time>
      </trkpt>
      <trkpt lat="47.02518" lon="8.94177">
        <ele>859</ele>
        <time>2021-08-03T08:19:52.635Z</time>
      </trkpt>
      <trkpt lat="47.02518" lon="8.94175">
        <ele>859</ele>
        <time>2021-08-03T08:19:53.635Z</time>
      </trkpt>
      <trkpt lat="47.02518" lon="8.94173">
        <ele>859</ele>
        <time>2021-08-03T08:19:54.635Z</time>
      </trkpt>
      <trkpt lat="47.02518" lon="8.94173">
        <ele>859</ele>
        <time>2021-08-03T08:19:55.635Z</time>
      </trkpt>
      <trkpt lat="47.02517" lon="8.94169">
        <ele>860</ele>
        <time>2021-08-03T08:19:56.635Z</time>
      </trkpt>
      <trkpt lat="47.02517" lon="8.94167">
        <ele>860</ele>
        <time>2021-08-03T08:19:57.635Z</time>
      </trkpt>
      <trkpt lat="47.02517" lon="8.94167">
        <ele>860</ele>
        <time>2021-08-03T08:19:58.636Z</time>
      </trkpt>
      <trkpt lat="47.02517" lon="8.94165">
        <ele>861</ele>
        <time>2021-08-03T08:19:59.636Z</time>
      </trkpt>
      <trkpt lat="47.02517" lon="8.94164">
        <ele>861</ele>
        <time>2021-08-03T08:20:00.635Z</time>
      </trkpt>
      <trkpt lat="47.02517" lon="8.94163">
        <ele>862</ele>
        <time>2021-08-03T08:20:01.635Z</time>
      </trkpt>
      <trkpt lat="47.02517" lon="8.94161">
        <ele>862</ele>
        <time>2021-08-03T08:20:02.635Z</time>
      </trkpt>
      <trkpt lat="47.02516" lon="8.9416">
        <ele>862</ele>
        <time>2021-08-03T08:20:03.635Z</time>
      </trkpt>
      <trkpt lat="47.02518" lon="8.94157">
        <ele>863</ele>
        <time>2021-08-03T08:20:04.635Z</time>
      </trkpt>
      <trkpt lat="47.02518" lon="8.94155">
        <ele>863</ele>
        <time>2021-08-03T08:20:05.635Z</time>
      </trkpt>
      <trkpt lat="47.02518" lon="8.94155">
        <ele>863</ele>
        <time>2021-08-03T08:20:06.635Z</time>
      </trkpt>
      <trkpt lat="47.02519" lon="8.94153">
        <ele>863</ele>
        <time>2021-08-03T08:20:07.635Z</time>
      </trkpt>
      <trkpt lat="47.0252" lon="8.94152">
        <ele>863</ele>
        <time>2021-08-03T08:20:08.635Z</time>
      </trkpt>
      <trkpt lat="47.02522" lon="8.94151">
        <ele>863</ele>
        <time>2021-08-03T08:20:09.636Z</time>
      </trkpt>
      <trkpt lat="47.02523" lon="8.94151">
        <ele>863</ele>
        <time>2021-08-03T08:20:10.636Z</time>
      </trkpt>
      <trkpt lat="47.02524" lon="8.94149">
        <ele>864</ele>
        <time>2021-08-03T08:20:11.635Z</time>
      </trkpt>
      <trkpt lat="47.02524" lon="8.94148">
        <ele>864</ele>
        <time>2021-08-03T08:20:12.635Z</time>
      </trkpt>
      <trkpt lat="47.02524" lon="8.94148">
        <ele>864</ele>
        <time>2021-08-03T08:20:13.636Z</time>
      </trkpt>
      <trkpt lat="47.02525" lon="8.94148">
        <ele>864</ele>
        <time>2021-08-03T08:20:14.636Z</time>
      </trkpt>
      <trkpt lat="47.02526" lon="8.94147">
        <ele>864</ele>
        <time>2021-08-03T08:20:15.635Z</time>
      </trkpt>
      <trkpt lat="47.02527" lon="8.94145">
        <ele>864</ele>
        <time>2021-08-03T08:20:16.635Z</time>
      </trkpt>
      <trkpt lat="47.02527" lon="8.94145">
        <ele>865</ele>
        <time>2021-08-03T08:20:17.635Z</time>
      </trkpt>
      <trkpt lat="47.02527" lon="8.94144">
        <ele>865</ele>
        <time>2021-08-03T08:20:18.635Z</time>
      </trkpt>
      <trkpt lat="47.02528" lon="8.94144">
        <ele>865</ele>
        <time>2021-08-03T08:20:19.635Z</time>
      </trkpt>
      <trkpt lat="47.02529" lon="8.94143">
        <ele>865</ele>
        <time>2021-08-03T08:20:20.635Z</time>
      </trkpt>
      <trkpt lat="47.02529" lon="8.94143">
        <ele>865</ele>
        <time>2021-08-03T08:20:21.635Z</time>
      </trkpt>
      <trkpt lat="47.02531" lon="8.94141">
        <ele>864</ele>
        <time>2021-08-03T08:20:22.635Z</time>
      </trkpt>
      <trkpt lat="47.02531" lon="8.94139">
        <ele>864</ele>
        <time>2021-08-03T08:20:23.635Z</time>
      </trkpt>
      <trkpt lat="47.02531" lon="8.94139">
        <ele>864</ele>
        <time>2021-08-03T08:20:24.635Z</time>
      </trkpt>
      <trkpt lat="47.02531" lon="8.94138">
        <ele>865</ele>
        <time>2021-08-03T08:20:25.635Z</time>
      </trkpt>
      <trkpt lat="47.02531" lon="8.94136">
        <ele>865</ele>
        <time>2021-08-03T08:20:26.635Z</time>
      </trkpt>
      <trkpt lat="47.02531" lon="8.94134">
        <ele>865</ele>
        <time>2021-08-03T08:20:27.635Z</time>
      </trkpt>
      <trkpt lat="47.02531" lon="8.94133">
        <ele>865</ele>
        <time>2021-08-03T08:20:28.636Z</time>
      </trkpt>
      <trkpt lat="47.0253" lon="8.94132">
        <ele>865</ele>
        <time>2021-08-03T08:20:29.635Z</time>
      </trkpt>
      <trkpt lat="47.02531" lon="8.9413">
        <ele>865</ele>
        <time>2021-08-03T08:20:30.635Z</time>
      </trkpt>
      <trkpt lat="47.02532" lon="8.94129">
        <ele>865</ele>
        <time>2021-08-03T08:20:31.635Z</time>
      </trkpt>
      <trkpt lat="47.02533" lon="8.94128">
        <ele>864</ele>
        <time>2021-08-03T08:20:32.635Z</time>
      </trkpt>
      <trkpt lat="47.02534" lon="8.94126">
        <ele>864</ele>
        <time>2021-08-03T08:20:33.635Z</time>
      </trkpt>
      <trkpt lat="47.02534" lon="8.94126">
        <ele>864</ele>
        <time>2021-08-03T08:20:34.635Z</time>
      </trkpt>
      <trkpt lat="47.02536" lon="8.94124">
        <ele>863</ele>
        <time>2021-08-03T08:20:35.635Z</time>
      </trkpt>
      <trkpt lat="47.02536" lon="8.94124">
        <ele>863</ele>
        <time>2021-08-03T08:20:36.635Z</time>
      </trkpt>
      <trkpt lat="47.02536" lon="8.94123">
        <ele>863</ele>
        <time>2021-08-03T08:20:37.635Z</time>
      </trkpt>
      <trkpt lat="47.02538" lon="8.94122">
        <ele>863</ele>
        <time>2021-08-03T08:20:38.635Z</time>
      </trkpt>
      <trkpt lat="47.02539" lon="8.94121">
        <ele>863</ele>
        <time>2021-08-03T08:20:39.635Z</time>
      </trkpt>
      <trkpt lat="47.0254" lon="8.9412">
        <ele>863</ele>
        <time>2021-08-03T08:20:40.635Z</time>
      </trkpt>
      <trkpt lat="47.02541" lon="8.94117">
        <ele>863</ele>
        <time>2021-08-03T08:20:41.635Z</time>
      </trkpt>
      <trkpt lat="47.02541" lon="8.94117">
        <ele>863</ele>
        <time>2021-08-03T08:20:42.635Z</time>
      </trkpt>
      <trkpt lat="47.02541" lon="8.94117">
        <ele>862</ele>
        <time>2021-08-03T08:20:43.635Z</time>
      </trkpt>
      <trkpt lat="47.02542" lon="8.94116">
        <ele>862</ele>
        <time>2021-08-03T08:20:44.636Z</time>
      </trkpt>
      <trkpt lat="47.02543" lon="8.94115">
        <ele>862</ele>
        <time>2021-08-03T08:20:45.635Z</time>
      </trkpt>
      <trkpt lat="47.02543" lon="8.94114">
        <ele>862</ele>
        <time>2021-08-03T08:20:46.635Z</time>
      </trkpt>
      <trkpt lat="47.02544" lon="8.94111">
        <ele>862</ele>
        <time>2021-08-03T08:20:47.636Z</time>
      </trkpt>
      <trkpt lat="47.02544" lon="8.94109">
        <ele>862</ele>
        <time>2021-08-03T08:20:48.636Z</time>
      </trkpt>
      <trkpt lat="47.02543" lon="8.94106">
        <ele>862</ele>
        <time>2021-08-03T08:20:49.635Z</time>
      </trkpt>
      <trkpt lat="47.02543" lon="8.94106">
        <ele>862</ele>
        <time>2021-08-03T08:20:50.636Z</time>
      </trkpt>
      <trkpt lat="47.02544" lon="8.94105">
        <ele>862</ele>
        <time>2021-08-03T08:20:51.635Z</time>
      </trkpt>
      <trkpt lat="47.02544" lon="8.94103">
        <ele>862</ele>
        <time>2021-08-03T08:20:52.635Z</time>
      </trkpt>
      <trkpt lat="47.02544" lon="8.94103">
        <ele>862</ele>
        <time>2021-08-03T08:20:53.635Z</time>
      </trkpt>
      <trkpt lat="47.02545" lon="8.94101">
        <ele>862</ele>
        <time>2021-08-03T08:20:54.635Z</time>
      </trkpt>
      <trkpt lat="47.02545" lon="8.94099">
        <ele>862</ele>
        <time>2021-08-03T08:20:55.635Z</time>
      </trkpt>
      <trkpt lat="47.02545" lon="8.94096">
        <ele>863</ele>
        <time>2021-08-03T08:20:56.636Z</time>
      </trkpt>
      <trkpt lat="47.02545" lon="8.94096">
        <ele>863</ele>
        <time>2021-08-03T08:20:57.636Z</time>
      </trkpt>
      <trkpt lat="47.02546" lon="8.94093">
        <ele>863</ele>
        <time>2021-08-03T08:20:58.635Z</time>
      </trkpt>
      <trkpt lat="47.02546" lon="8.94093">
        <ele>863</ele>
        <time>2021-08-03T08:20:59.635Z</time>
      </trkpt>
      <trkpt lat="47.02546" lon="8.94092">
        <ele>863</ele>
        <time>2021-08-03T08:21:00.635Z</time>
      </trkpt>
      <trkpt lat="47.02546" lon="8.9409">
        <ele>863</ele>
        <time>2021-08-03T08:21:01.635Z</time>
      </trkpt>
      <trkpt lat="47.02545" lon="8.94087">
        <ele>864</ele>
        <time>2021-08-03T08:21:02.636Z</time>
      </trkpt>
      <trkpt lat="47.02545" lon="8.94085">
        <ele>864</ele>
        <time>2021-08-03T08:21:03.635Z</time>
      </trkpt>
      <trkpt lat="47.02545" lon="8.94083">
        <ele>864</ele>
        <time>2021-08-03T08:21:04.635Z</time>
      </trkpt>
      <trkpt lat="47.02546" lon="8.94082">
        <ele>864</ele>
        <time>2021-08-03T08:21:05.635Z</time>
      </trkpt>
      <trkpt lat="47.02546" lon="8.9408">
        <ele>865</ele>
        <time>2021-08-03T08:21:06.635Z</time>
      </trkpt>
      <trkpt lat="47.02547" lon="8.94079">
        <ele>865</ele>
        <time>2021-08-03T08:21:07.636Z</time>
      </trkpt>
      <trkpt lat="47.02547" lon="8.94077">
        <ele>865</ele>
        <time>2021-08-03T08:21:08.636Z</time>
      </trkpt>
      <trkpt lat="47.02547" lon="8.94076">
        <ele>865</ele>
        <time>2021-08-03T08:21:09.636Z</time>
      </trkpt>
      <trkpt lat="47.02548" lon="8.94074">
        <ele>865</ele>
        <time>2021-08-03T08:21:10.635Z</time>
      </trkpt>
      <trkpt lat="47.02548" lon="8.94071">
        <ele>865</ele>
        <time>2021-08-03T08:21:11.635Z</time>
      </trkpt>
      <trkpt lat="47.02548" lon="8.94069">
        <ele>865</ele>
        <time>2021-08-03T08:21:12.635Z</time>
      </trkpt>
      <trkpt lat="47.02548" lon="8.94066">
        <ele>864</ele>
        <time>2021-08-03T08:21:13.635Z</time>
      </trkpt>
      <trkpt lat="47.02548" lon="8.94064">
        <ele>864</ele>
        <time>2021-08-03T08:21:14.635Z</time>
      </trkpt>
      <trkpt lat="47.02549" lon="8.94063">
        <ele>863</ele>
        <time>2021-08-03T08:21:15.636Z</time>
      </trkpt>
      <trkpt lat="47.02549" lon="8.94061">
        <ele>863</ele>
        <time>2021-08-03T08:21:16.635Z</time>
      </trkpt>
      <trkpt lat="47.0255" lon="8.94061">
        <ele>862</ele>
        <time>2021-08-03T08:21:17.635Z</time>
      </trkpt>
      <trkpt lat="47.0255" lon="8.9406">
        <ele>862</ele>
        <time>2021-08-03T08:21:18.635Z</time>
      </trkpt>
      <trkpt lat="47.0255" lon="8.94058">
        <ele>862</ele>
        <time>2021-08-03T08:21:19.635Z</time>
      </trkpt>
      <trkpt lat="47.02551" lon="8.94057">
        <ele>862</ele>
        <time>2021-08-03T08:21:20.635Z</time>
      </trkpt>
      <trkpt lat="47.02551" lon="8.94056">
        <ele>861</ele>
        <time>2021-08-03T08:21:21.635Z</time>
      </trkpt>
      <trkpt lat="47.02551" lon="8.94055">
        <ele>861</ele>
        <time>2021-08-03T08:21:22.636Z</time>
      </trkpt>
      <trkpt lat="47.02552" lon="8.94054">
        <ele>861</ele>
        <time>2021-08-03T08:21:23.636Z</time>
      </trkpt>
      <trkpt lat="47.02552" lon="8.94053">
        <ele>860</ele>
        <time>2021-08-03T08:21:24.635Z</time>
      </trkpt>
      <trkpt lat="47.02553" lon="8.94051">
        <ele>860</ele>
        <time>2021-08-03T08:21:25.635Z</time>
      </trkpt>
      <trkpt lat="47.02553" lon="8.9405">
        <ele>860</ele>
        <time>2021-08-03T08:21:26.636Z</time>
      </trkpt>
      <trkpt lat="47.02554" lon="8.94048">
        <ele>860</ele>
        <time>2021-08-03T08:21:27.635Z</time>
      </trkpt>
      <trkpt lat="47.02554" lon="8.94047">
        <ele>859</ele>
        <time>2021-08-03T08:21:28.635Z</time>
      </trkpt>
      <trkpt lat="47.02555" lon="8.94046">
        <ele>859</ele>
        <time>2021-08-03T08:21:29.635Z</time>
      </trkpt>
      <trkpt lat="47.02555" lon="8.94045">
        <ele>859</ele>
        <time>2021-08-03T08:21:30.635Z</time>
      </trkpt>
      <trkpt lat="47.02555" lon="8.94044">
        <ele>859</ele>
        <time>2021-08-03T08:21:31.636Z</time>
      </trkpt>
      <trkpt lat="47.02555" lon="8.94043">
        <ele>859</ele>
        <time>2021-08-03T08:21:32.635Z</time>
      </trkpt>
      <trkpt lat="47.02556" lon="8.94041">
        <ele>858</ele>
        <time>2021-08-03T08:21:33.635Z</time>
      </trkpt>
      <trkpt lat="47.02556" lon="8.94039">
        <ele>858</ele>
        <time>2021-08-03T08:21:34.635Z</time>
      </trkpt>
      <trkpt lat="47.02556" lon="8.94038">
        <ele>858</ele>
        <time>2021-08-03T08:21:35.636Z</time>
      </trkpt>
      <trkpt lat="47.02556" lon="8.94036">
        <ele>858</ele>
        <time>2021-08-03T08:21:36.636Z</time>
      </trkpt>
      <trkpt lat="47.02556" lon="8.94035">
        <ele>858</ele>
        <time>2021-08-03T08:21:37.635Z</time>
      </trkpt>
      <trkpt lat="47.02556" lon="8.94034">
        <ele>858</ele>
        <time>2021-08-03T08:21:38.636Z</time>
      </trkpt>
      <trkpt lat="47.02556" lon="8.94033">
        <ele>857</ele>
        <time>2021-08-03T08:21:39.635Z</time>
      </trkpt>
      <trkpt lat="47.02557" lon="8.94032">
        <ele>857</ele>
        <time>2021-08-03T08:21:40.635Z</time>
      </trkpt>
      <trkpt lat="47.02557" lon="8.94031">
        <ele>857</ele>
        <time>2021-08-03T08:21:41.636Z</time>
      </trkpt>
      <trkpt lat="47.02557" lon="8.9403">
        <ele>857</ele>
        <time>2021-08-03T08:21:42.635Z</time>
      </trkpt>
      <trkpt lat="47.02558" lon="8.94029">
        <ele>857</ele>
        <time>2021-08-03T08:21:43.635Z</time>
      </trkpt>
      <trkpt lat="47.02558" lon="8.94027">
        <ele>857</ele>
        <time>2021-08-03T08:21:44.636Z</time>
      </trkpt>
      <trkpt lat="47.02559" lon="8.94026">
        <ele>857</ele>
        <time>2021-08-03T08:21:45.635Z</time>
      </trkpt>
      <trkpt lat="47.02559" lon="8.94025">
        <ele>857</ele>
        <time>2021-08-03T08:21:46.635Z</time>
      </trkpt>
      <trkpt lat="47.02559" lon="8.94024">
        <ele>857</ele>
        <time>2021-08-03T08:21:47.636Z</time>
      </trkpt>
      <trkpt lat="47.0256" lon="8.94022">
        <ele>857</ele>
        <time>2021-08-03T08:21:48.635Z</time>
      </trkpt>
      <trkpt lat="47.0256" lon="8.9402">
        <ele>857</ele>
        <time>2021-08-03T08:21:49.635Z</time>
      </trkpt>
      <trkpt lat="47.02561" lon="8.94019">
        <ele>857</ele>
        <time>2021-08-03T08:21:50.635Z</time>
      </trkpt>
      <trkpt lat="47.02562" lon="8.94017">
        <ele>857</ele>
        <time>2021-08-03T08:21:51.636Z</time>
      </trkpt>
      <trkpt lat="47.02562" lon="8.94016">
        <ele>857</ele>
        <time>2021-08-03T08:21:52.635Z</time>
      </trkpt>
      <trkpt lat="47.02562" lon="8.94015">
        <ele>857</ele>
        <time>2021-08-03T08:21:53.635Z</time>
      </trkpt>
      <trkpt lat="47.02563" lon="8.94014">
        <ele>857</ele>
        <time>2021-08-03T08:21:54.635Z</time>
      </trkpt>
      <trkpt lat="47.02563" lon="8.94013">
        <ele>857</ele>
        <time>2021-08-03T08:21:55.636Z</time>
      </trkpt>
      <trkpt lat="47.02564" lon="8.94012">
        <ele>857</ele>
        <time>2021-08-03T08:21:56.636Z</time>
      </trkpt>
      <trkpt lat="47.02564" lon="8.94011">
        <ele>857</ele>
        <time>2021-08-03T08:21:57.635Z</time>
      </trkpt>
      <trkpt lat="47.02565" lon="8.94009">
        <ele>858</ele>
        <time>2021-08-03T08:21:58.636Z</time>
      </trkpt>
      <trkpt lat="47.02566" lon="8.94008">
        <ele>858</ele>
        <time>2021-08-03T08:21:59.636Z</time>
      </trkpt>
      <trkpt lat="47.02566" lon="8.94007">
        <ele>858</ele>
        <time>2021-08-03T08:22:00.636Z</time>
      </trkpt>
      <trkpt lat="47.02567" lon="8.94005">
        <ele>859</ele>
        <time>2021-08-03T08:22:01.635Z</time>
      </trkpt>
      <trkpt lat="47.02567" lon="8.94004">
        <ele>859</ele>
        <time>2021-08-03T08:22:02.635Z</time>
      </trkpt>
      <trkpt lat="47.02567" lon="8.94003">
        <ele>860</ele>
        <time>2021-08-03T08:22:03.635Z</time>
      </trkpt>
      <trkpt lat="47.02567" lon="8.94002">
        <ele>860</ele>
        <time>2021-08-03T08:22:04.635Z</time>
      </trkpt>
      <trkpt lat="47.02568" lon="8.94">
        <ele>860</ele>
        <time>2021-08-03T08:22:05.636Z</time>
      </trkpt>
      <trkpt lat="47.02569" lon="8.93999">
        <ele>861</ele>
        <time>2021-08-03T08:22:06.635Z</time>
      </trkpt>
      <trkpt lat="47.0257" lon="8.93998">
        <ele>861</ele>
        <time>2021-08-03T08:22:07.636Z</time>
      </trkpt>
      <trkpt lat="47.0257" lon="8.93996">
        <ele>861</ele>
        <time>2021-08-03T08:22:08.635Z</time>
      </trkpt>
      <trkpt lat="47.0257" lon="8.93995">
        <ele>862</ele>
        <time>2021-08-03T08:22:09.636Z</time>
      </trkpt>
      <trkpt lat="47.02571" lon="8.93995">
        <ele>862</ele>
        <time>2021-08-03T08:22:10.636Z</time>
      </trkpt>
      <trkpt lat="47.02571" lon="8.93993">
        <ele>862</ele>
        <time>2021-08-03T08:22:11.636Z</time>
      </trkpt>
      <trkpt lat="47.02572" lon="8.93991">
        <ele>863</ele>
        <time>2021-08-03T08:22:12.636Z</time>
      </trkpt>
      <trkpt lat="47.02572" lon="8.93989">
        <ele>863</ele>
        <time>2021-08-03T08:22:13.636Z</time>
      </trkpt>
      <trkpt lat="47.02572" lon="8.93987">
        <ele>863</ele>
        <time>2021-08-03T08:22:14.635Z</time>
      </trkpt>
      <trkpt lat="47.02573" lon="8.93985">
        <ele>863</ele>
        <time>2021-08-03T08:22:15.635Z</time>
      </trkpt>
      <trkpt lat="47.02573" lon="8.93983">
        <ele>863</ele>
        <time>2021-08-03T08:22:16.635Z</time>
      </trkpt>
      <trkpt lat="47.02573" lon="8.93982">
        <ele>864</ele>
        <time>2021-08-03T08:22:17.636Z</time>
      </trkpt>
      <trkpt lat="47.02573" lon="8.93982">
        <ele>864</ele>
        <time>2021-08-03T08:22:18.635Z</time>
      </trkpt>
      <trkpt lat="47.02574" lon="8.93981">
        <ele>864</ele>
        <time>2021-08-03T08:22:19.635Z</time>
      </trkpt>
      <trkpt lat="47.02574" lon="8.9398">
        <ele>865</ele>
        <time>2021-08-03T08:22:20.636Z</time>
      </trkpt>
      <trkpt lat="47.02575" lon="8.93978">
        <ele>865</ele>
        <time>2021-08-03T08:22:21.636Z</time>
      </trkpt>
      <trkpt lat="47.02575" lon="8.93977">
        <ele>865</ele>
        <time>2021-08-03T08:22:22.636Z</time>
      </trkpt>
      <trkpt lat="47.02575" lon="8.93976">
        <ele>865</ele>
        <time>2021-08-03T08:22:23.636Z</time>
      </trkpt>
      <trkpt lat="47.02576" lon="8.93975">
        <ele>866</ele>
        <time>2021-08-03T08:22:24.636Z</time>
      </trkpt>
      <trkpt lat="47.02577" lon="8.93974">
        <ele>866</ele>
        <time>2021-08-03T08:22:25.636Z</time>
      </trkpt>
      <trkpt lat="47.02577" lon="8.93972">
        <ele>866</ele>
        <time>2021-08-03T08:22:26.635Z</time>
      </trkpt>
      <trkpt lat="47.02577" lon="8.93972">
        <ele>866</ele>
        <time>2021-08-03T08:22:27.635Z</time>
      </trkpt>
      <trkpt lat="47.02577" lon="8.93971">
        <ele>866</ele>
        <time>2021-08-03T08:22:28.635Z</time>
      </trkpt>
      <trkpt lat="47.02578" lon="8.9397">
        <ele>867</ele>
        <time>2021-08-03T08:22:29.635Z</time>
      </trkpt>
      <trkpt lat="47.02578" lon="8.93969">
        <ele>867</ele>
        <time>2021-08-03T08:22:30.635Z</time>
      </trkpt>
      <trkpt lat="47.02578" lon="8.93968">
        <ele>867</ele>
        <time>2021-08-03T08:22:31.636Z</time>
      </trkpt>
      <trkpt lat="47.02578" lon="8.93967">
        <ele>867</ele>
        <time>2021-08-03T08:22:32.636Z</time>
      </trkpt>
      <trkpt lat="47.02578" lon="8.93967">
        <ele>867</ele>
        <time>2021-08-03T08:22:33.635Z</time>
      </trkpt>
      <trkpt lat="47.02578" lon="8.93966">
        <ele>867</ele>
        <time>2021-08-03T08:22:34.635Z</time>
      </trkpt>
      <trkpt lat="47.02578" lon="8.93965">
        <ele>867</ele>
        <time>2021-08-03T08:22:35.635Z</time>
      </trkpt>
      <trkpt lat="47.02578" lon="8.93963">
        <ele>867</ele>
        <time>2021-08-03T08:22:36.635Z</time>
      </trkpt>
      <trkpt lat="47.02579" lon="8.93962">
        <ele>867</ele>
        <time>2021-08-03T08:22:37.635Z</time>
      </trkpt>
      <trkpt lat="47.02579" lon="8.93961">
        <ele>867</ele>
        <time>2021-08-03T08:22:38.635Z</time>
      </trkpt>
      <trkpt lat="47.0258" lon="8.93961">
        <ele>866</ele>
        <time>2021-08-03T08:22:39.635Z</time>
      </trkpt>
      <trkpt lat="47.0258" lon="8.9396">
        <ele>866</ele>
        <time>2021-08-03T08:22:40.635Z</time>
      </trkpt>
      <trkpt lat="47.0258" lon="8.93959">
        <ele>866</ele>
        <time>2021-08-03T08:22:41.635Z</time>
      </trkpt>
      <trkpt lat="47.02581" lon="8.93958">
        <ele>866</ele>
        <time>2021-08-03T08:22:42.635Z</time>
      </trkpt>
      <trkpt lat="47.02581" lon="8.93957">
        <ele>866</ele>
        <time>2021-08-03T08:22:43.635Z</time>
      </trkpt>
      <trkpt lat="47.02581" lon="8.93956">
        <ele>866</ele>
        <time>2021-08-03T08:22:44.635Z</time>
      </trkpt>
      <trkpt lat="47.02581" lon="8.93955">
        <ele>866</ele>
        <time>2021-08-03T08:22:45.635Z</time>
      </trkpt>
      <trkpt lat="47.02582" lon="8.93954">
        <ele>866</ele>
        <time>2021-08-03T08:22:46.635Z</time>
      </trkpt>
      <trkpt lat="47.02582" lon="8.93953">
        <ele>866</ele>
        <time>2021-08-03T08:22:47.635Z</time>
      </trkpt>
      <trkpt lat="47.02583" lon="8.93952">
        <ele>866</ele>
        <time>2021-08-03T08:22:48.636Z</time>
      </trkpt>
      <trkpt lat="47.02583" lon="8.93951">
        <ele>865</ele>
        <time>2021-08-03T08:22:49.635Z</time>
      </trkpt>
      <trkpt lat="47.02584" lon="8.9395">
        <ele>865</ele>
        <time>2021-08-03T08:22:50.636Z</time>
      </trkpt>
      <trkpt lat="47.02584" lon="8.93949">
        <ele>865</ele>
        <time>2021-08-03T08:22:51.636Z</time>
      </trkpt>
      <trkpt lat="47.02584" lon="8.93948">
        <ele>864</ele>
        <time>2021-08-03T08:22:52.636Z</time>
      </trkpt>
      <trkpt lat="47.02584" lon="8.93947">
        <ele>864</ele>
        <time>2021-08-03T08:22:53.636Z</time>
      </trkpt>
      <trkpt lat="47.02584" lon="8.93946">
        <ele>864</ele>
        <time>2021-08-03T08:22:54.636Z</time>
      </trkpt>
      <trkpt lat="47.02584" lon="8.93945">
        <ele>864</ele>
        <time>2021-08-03T08:22:55.636Z</time>
      </trkpt>
      <trkpt lat="47.02584" lon="8.93945">
        <ele>863</ele>
        <time>2021-08-03T08:22:56.635Z</time>
      </trkpt>
      <trkpt lat="47.02585" lon="8.93943">
        <ele>863</ele>
        <time>2021-08-03T08:22:57.635Z</time>
      </trkpt>
      <trkpt lat="47.02585" lon="8.93942">
        <ele>863</ele>
        <time>2021-08-03T08:22:58.636Z</time>
      </trkpt>
      <trkpt lat="47.02585" lon="8.93941">
        <ele>863</ele>
        <time>2021-08-03T08:22:59.635Z</time>
      </trkpt>
      <trkpt lat="47.02586" lon="8.9394">
        <ele>863</ele>
        <time>2021-08-03T08:23:00.636Z</time>
      </trkpt>
      <trkpt lat="47.02586" lon="8.93939">
        <ele>863</ele>
        <time>2021-08-03T08:23:01.636Z</time>
      </trkpt>
      <trkpt lat="47.02586" lon="8.93937">
        <ele>863</ele>
        <time>2021-08-03T08:23:02.636Z</time>
      </trkpt>
      <trkpt lat="47.02586" lon="8.93936">
        <ele>863</ele>
        <time>2021-08-03T08:23:03.635Z</time>
      </trkpt>
      <trkpt lat="47.02587" lon="8.93934">
        <ele>864</ele>
        <time>2021-08-03T08:23:04.636Z</time>
      </trkpt>
      <trkpt lat="47.02588" lon="8.93933">
        <ele>864</ele>
        <time>2021-08-03T08:23:05.635Z</time>
      </trkpt>
      <trkpt lat="47.02588" lon="8.93931">
        <ele>864</ele>
        <time>2021-08-03T08:23:06.635Z</time>
      </trkpt>
      <trkpt lat="47.02588" lon="8.9393">
        <ele>865</ele>
        <time>2021-08-03T08:23:07.635Z</time>
      </trkpt>
      <trkpt lat="47.02589" lon="8.93929">
        <ele>865</ele>
        <time>2021-08-03T08:23:08.636Z</time>
      </trkpt>
      <trkpt lat="47.02589" lon="8.93928">
        <ele>865</ele>
        <time>2021-08-03T08:23:09.636Z</time>
      </trkpt>
      <trkpt lat="47.0259" lon="8.93927">
        <ele>865</ele>
        <time>2021-08-03T08:23:10.635Z</time>
      </trkpt>
      <trkpt lat="47.0259" lon="8.93926">
        <ele>865</ele>
        <time>2021-08-03T08:23:11.636Z</time>
      </trkpt>
      <trkpt lat="47.0259" lon="8.93925">
        <ele>865</ele>
        <time>2021-08-03T08:23:12.636Z</time>
      </trkpt>
      <trkpt lat="47.0259" lon="8.93924">
        <ele>866</ele>
        <time>2021-08-03T08:23:13.636Z</time>
      </trkpt>
      <trkpt lat="47.0259" lon="8.93923">
        <ele>866</ele>
        <time>2021-08-03T08:23:14.636Z</time>
      </trkpt>
      <trkpt lat="47.0259" lon="8.93922">
        <ele>866</ele>
        <time>2021-08-03T08:23:15.636Z</time>
      </trkpt>
      <trkpt lat="47.02591" lon="8.93921">
        <ele>866</ele>
        <time>2021-08-03T08:23:16.635Z</time>
      </trkpt>
      <trkpt lat="47.02591" lon="8.93921">
        <ele>866</ele>
        <time>2021-08-03T08:23:17.636Z</time>
      </trkpt>
      <trkpt lat="47.02592" lon="8.9392">
        <ele>866</ele>
        <time>2021-08-03T08:23:18.635Z</time>
      </trkpt>
      <trkpt lat="47.02592" lon="8.93919">
        <ele>867</ele>
        <time>2021-08-03T08:23:19.636Z</time>
      </trkpt>
      <trkpt lat="47.02592" lon="8.93917">
        <ele>867</ele>
        <time>2021-08-03T08:23:20.635Z</time>
      </trkpt>
      <trkpt lat="47.02592" lon="8.93916">
        <ele>867</ele>
        <time>2021-08-03T08:23:21.636Z</time>
      </trkpt>
      <trkpt lat="47.02592" lon="8.93915">
        <ele>867</ele>
        <time>2021-08-03T08:23:22.636Z</time>
      </trkpt>
      <trkpt lat="47.02593" lon="8.93914">
        <ele>867</ele>
        <time>2021-08-03T08:23:23.635Z</time>
      </trkpt>
      <trkpt lat="47.02594" lon="8.93913">
        <ele>867</ele>
        <time>2021-08-03T08:23:24.636Z</time>
      </trkpt>
      <trkpt lat="47.02594" lon="8.93911">
        <ele>867</ele>
        <time>2021-08-03T08:23:25.635Z</time>
      </trkpt>
      <trkpt lat="47.02595" lon="8.9391">
        <ele>867</ele>
        <time>2021-08-03T08:23:26.636Z</time>
      </trkpt>
      <trkpt lat="47.02596" lon="8.93909">
        <ele>868</ele>
        <time>2021-08-03T08:23:27.636Z</time>
      </trkpt>
      <trkpt lat="47.02597" lon="8.93907">
        <ele>868</ele>
        <time>2021-08-03T08:23:28.636Z</time>
      </trkpt>
      <trkpt lat="47.02598" lon="8.93907">
        <ele>868</ele>
        <time>2021-08-03T08:23:29.635Z</time>
      </trkpt>
      <trkpt lat="47.02599" lon="8.93906">
        <ele>868</ele>
        <time>2021-08-03T08:23:30.636Z</time>
      </trkpt>
      <trkpt lat="47.02599" lon="8.93905">
        <ele>868</ele>
        <time>2021-08-03T08:23:31.636Z</time>
      </trkpt>
      <trkpt lat="47.026" lon="8.93904">
        <ele>868</ele>
        <time>2021-08-03T08:23:32.635Z</time>
      </trkpt>
      <trkpt lat="47.026" lon="8.93903">
        <ele>868</ele>
        <time>2021-08-03T08:23:33.635Z</time>
      </trkpt>
      <trkpt lat="47.02601" lon="8.93902">
        <ele>868</ele>
        <time>2021-08-03T08:23:34.636Z</time>
      </trkpt>
      <trkpt lat="47.02601" lon="8.93901">
        <ele>868</ele>
        <time>2021-08-03T08:23:35.636Z</time>
      </trkpt>
      <trkpt lat="47.02601" lon="8.939">
        <ele>869</ele>
        <time>2021-08-03T08:23:36.635Z</time>
      </trkpt>
      <trkpt lat="47.02602" lon="8.93899">
        <ele>869</ele>
        <time>2021-08-03T08:23:37.635Z</time>
      </trkpt>
      <trkpt lat="47.02602" lon="8.93897">
        <ele>869</ele>
        <time>2021-08-03T08:23:38.636Z</time>
      </trkpt>
      <trkpt lat="47.02603" lon="8.93895">
        <ele>869</ele>
        <time>2021-08-03T08:23:39.636Z</time>
      </trkpt>
      <trkpt lat="47.02603" lon="8.93894">
        <ele>869</ele>
        <time>2021-08-03T08:23:40.636Z</time>
      </trkpt>
      <trkpt lat="47.02603" lon="8.93893">
        <ele>869</ele>
        <time>2021-08-03T08:23:41.636Z</time>
      </trkpt>
      <trkpt lat="47.02603" lon="8.93892">
        <ele>869</ele>
        <time>2021-08-03T08:23:42.635Z</time>
      </trkpt>
      <trkpt lat="47.02603" lon="8.93891">
        <ele>869</ele>
        <time>2021-08-03T08:23:43.636Z</time>
      </trkpt>
      <trkpt lat="47.02604" lon="8.9389">
        <ele>870</ele>
        <time>2021-08-03T08:23:44.636Z</time>
      </trkpt>
      <trkpt lat="47.02604" lon="8.93889">
        <ele>870</ele>
        <time>2021-08-03T08:23:45.636Z</time>
      </trkpt>
      <trkpt lat="47.02604" lon="8.93887">
        <ele>869</ele>
        <time>2021-08-03T08:23:46.635Z</time>
      </trkpt>
      <trkpt lat="47.02604" lon="8.93886">
        <ele>869</ele>
        <time>2021-08-03T08:23:47.636Z</time>
      </trkpt>
      <trkpt lat="47.02605" lon="8.93885">
        <ele>869</ele>
        <time>2021-08-03T08:23:48.635Z</time>
      </trkpt>
      <trkpt lat="47.02605" lon="8.93885">
        <ele>869</ele>
        <time>2021-08-03T08:23:49.636Z</time>
      </trkpt>
      <trkpt lat="47.02606" lon="8.93884">
        <ele>869</ele>
        <time>2021-08-03T08:23:50.635Z</time>
      </trkpt>
      <trkpt lat="47.02606" lon="8.93883">
        <ele>869</ele>
        <time>2021-08-03T08:23:51.636Z</time>
      </trkpt>
      <trkpt lat="47.02607" lon="8.93882">
        <ele>869</ele>
        <time>2021-08-03T08:23:52.636Z</time>
      </trkpt>
      <trkpt lat="47.02608" lon="8.93882">
        <ele>870</ele>
        <time>2021-08-03T08:23:53.635Z</time>
      </trkpt>
      <trkpt lat="47.02609" lon="8.93881">
        <ele>870</ele>
        <time>2021-08-03T08:23:54.635Z</time>
      </trkpt>
      <trkpt lat="47.0261" lon="8.9388">
        <ele>870</ele>
        <time>2021-08-03T08:23:55.635Z</time>
      </trkpt>
      <trkpt lat="47.02611" lon="8.9388">
        <ele>870</ele>
        <time>2021-08-03T08:23:56.635Z</time>
      </trkpt>
      <trkpt lat="47.02612" lon="8.9388">
        <ele>870</ele>
        <time>2021-08-03T08:23:57.635Z</time>
      </trkpt>
      <trkpt lat="47.02613" lon="8.9388">
        <ele>871</ele>
        <time>2021-08-03T08:23:58.636Z</time>
      </trkpt>
      <trkpt lat="47.02615" lon="8.93879">
        <ele>872</ele>
        <time>2021-08-03T08:23:59.635Z</time>
      </trkpt>
      <trkpt lat="47.02616" lon="8.93878">
        <ele>872</ele>
        <time>2021-08-03T08:24:00.635Z</time>
      </trkpt>
      <trkpt lat="47.02616" lon="8.93878">
        <ele>873</ele>
        <time>2021-08-03T08:24:01.635Z</time>
      </trkpt>
      <trkpt lat="47.02617" lon="8.93877">
        <ele>874</ele>
        <time>2021-08-03T08:24:02.636Z</time>
      </trkpt>
      <trkpt lat="47.02618" lon="8.93876">
        <ele>875</ele>
        <time>2021-08-03T08:24:03.635Z</time>
      </trkpt>
      <trkpt lat="47.02619" lon="8.93876">
        <ele>875</ele>
        <time>2021-08-03T08:24:04.635Z</time>
      </trkpt>
      <trkpt lat="47.0262" lon="8.93875">
        <ele>876</ele>
        <time>2021-08-03T08:24:05.636Z</time>
      </trkpt>
      <trkpt lat="47.0262" lon="8.93875">
        <ele>877</ele>
        <time>2021-08-03T08:24:06.635Z</time>
      </trkpt>
      <trkpt lat="47.02621" lon="8.93874">
        <ele>877</ele>
        <time>2021-08-03T08:24:07.636Z</time>
      </trkpt>
      <trkpt lat="47.02622" lon="8.93873">
        <ele>878</ele>
        <time>2021-08-03T08:24:08.636Z</time>
      </trkpt>
      <trkpt lat="47.02623" lon="8.93872">
        <ele>878</ele>
        <time>2021-08-03T08:24:09.636Z</time>
      </trkpt>
      <trkpt lat="47.02623" lon="8.93871">
        <ele>878</ele>
        <time>2021-08-03T08:24:10.636Z</time>
      </trkpt>
      <trkpt lat="47.02624" lon="8.9387">
        <ele>878</ele>
        <time>2021-08-03T08:24:11.636Z</time>
      </trkpt>
      <trkpt lat="47.02624" lon="8.9387">
        <ele>879</ele>
        <time>2021-08-03T08:24:12.636Z</time>
      </trkpt>
      <trkpt lat="47.02624" lon="8.93868">
        <ele>880</ele>
        <time>2021-08-03T08:24:13.636Z</time>
      </trkpt>
      <trkpt lat="47.02625" lon="8.93867">
        <ele>881</ele>
        <time>2021-08-03T08:24:14.636Z</time>
      </trkpt>
      <trkpt lat="47.02626" lon="8.93866">
        <ele>881</ele>
        <time>2021-08-03T08:24:15.635Z</time>
      </trkpt>
      <trkpt lat="47.02627" lon="8.93866">
        <ele>882</ele>
        <time>2021-08-03T08:24:16.635Z</time>
      </trkpt>
      <trkpt lat="47.02628" lon="8.93865">
        <ele>882</ele>
        <time>2021-08-03T08:24:17.636Z</time>
      </trkpt>
      <trkpt lat="47.02628" lon="8.93865">
        <ele>882</ele>
        <time>2021-08-03T08:24:18.635Z</time>
      </trkpt>
      <trkpt lat="47.02629" lon="8.93864">
        <ele>883</ele>
        <time>2021-08-03T08:24:19.636Z</time>
      </trkpt>
      <trkpt lat="47.0263" lon="8.93862">
        <ele>883</ele>
        <time>2021-08-03T08:24:20.635Z</time>
      </trkpt>
      <trkpt lat="47.02631" lon="8.93861">
        <ele>883</ele>
        <time>2021-08-03T08:24:21.636Z</time>
      </trkpt>
      <trkpt lat="47.02631" lon="8.93861">
        <ele>883</ele>
        <time>2021-08-03T08:24:22.635Z</time>
      </trkpt>
      <trkpt lat="47.02632" lon="8.9386">
        <ele>883</ele>
        <time>2021-08-03T08:24:23.635Z</time>
      </trkpt>
      <trkpt lat="47.02633" lon="8.93858">
        <ele>883</ele>
        <time>2021-08-03T08:24:24.636Z</time>
      </trkpt>
      <trkpt lat="47.02633" lon="8.93857">
        <ele>883</ele>
        <time>2021-08-03T08:24:25.636Z</time>
      </trkpt>
      <trkpt lat="47.02632" lon="8.93855">
        <ele>883</ele>
        <time>2021-08-03T08:24:26.636Z</time>
      </trkpt>
      <trkpt lat="47.02632" lon="8.93853">
        <ele>883</ele>
        <time>2021-08-03T08:24:27.636Z</time>
      </trkpt>
      <trkpt lat="47.02631" lon="8.93852">
        <ele>883</ele>
        <time>2021-08-03T08:24:28.635Z</time>
      </trkpt>
      <trkpt lat="47.02631" lon="8.93852">
        <ele>883</ele>
        <time>2021-08-03T08:24:29.635Z</time>
      </trkpt>
      <trkpt lat="47.02631" lon="8.9385">
        <ele>883</ele>
        <time>2021-08-03T08:24:30.636Z</time>
      </trkpt>
      <trkpt lat="47.0263" lon="8.93849">
        <ele>883</ele>
        <time>2021-08-03T08:24:31.636Z</time>
      </trkpt>
      <trkpt lat="47.0263" lon="8.93847">
        <ele>884</ele>
        <time>2021-08-03T08:24:32.636Z</time>
      </trkpt>
      <trkpt lat="47.0263" lon="8.93846">
        <ele>884</ele>
        <time>2021-08-03T08:24:33.636Z</time>
      </trkpt>
      <trkpt lat="47.0263" lon="8.93845">
        <ele>884</ele>
        <time>2021-08-03T08:24:34.635Z</time>
      </trkpt>
      <trkpt lat="47.02629" lon="8.93844">
        <ele>884</ele>
        <time>2021-08-03T08:24:35.635Z</time>
      </trkpt>
      <trkpt lat="47.02629" lon="8.93843">
        <ele>885</ele>
        <time>2021-08-03T08:24:36.636Z</time>
      </trkpt>
      <trkpt lat="47.02629" lon="8.93842">
        <ele>885</ele>
        <time>2021-08-03T08:24:37.635Z</time>
      </trkpt>
      <trkpt lat="47.02629" lon="8.93841">
        <ele>885</ele>
        <time>2021-08-03T08:24:38.636Z</time>
      </trkpt>
      <trkpt lat="47.02629" lon="8.9384">
        <ele>884</ele>
        <time>2021-08-03T08:24:39.635Z</time>
      </trkpt>
      <trkpt lat="47.02628" lon="8.9384">
        <ele>884</ele>
        <time>2021-08-03T08:24:40.636Z</time>
      </trkpt>
      <trkpt lat="47.02628" lon="8.9384">
        <ele>884</ele>
        <time>2021-08-03T08:24:41.636Z</time>
      </trkpt>
      <trkpt lat="47.02629" lon="8.93839">
        <ele>883</ele>
        <time>2021-08-03T08:24:42.635Z</time>
      </trkpt>
      <trkpt lat="47.0263" lon="8.93838">
        <ele>882</ele>
        <time>2021-08-03T08:24:43.636Z</time>
      </trkpt>
      <trkpt lat="47.02628" lon="8.93836">
        <ele>881</ele>
        <time>2021-08-03T08:24:44.637Z</time>
      </trkpt>
      <trkpt lat="47.02628" lon="8.93836">
        <ele>881</ele>
        <time>2021-08-03T08:24:45.637Z</time>
      </trkpt>
      <trkpt lat="47.02628" lon="8.93837">
        <ele>881</ele>
        <time>2021-08-03T08:24:46.636Z</time>
      </trkpt>
      <trkpt lat="47.02628" lon="8.93837">
        <ele>881</ele>
        <time>2021-08-03T08:24:47.637Z</time>
      </trkpt>
      <trkpt lat="47.02629" lon="8.93838">
        <ele>881</ele>
        <time>2021-08-03T08:24:48.637Z</time>
      </trkpt>
      <trkpt lat="47.02629" lon="8.93839">
        <ele>881</ele>
        <time>2021-08-03T08:24:49.637Z</time>
      </trkpt>
      <trkpt lat="47.02629" lon="8.93839">
        <ele>881</ele>
        <time>2021-08-03T08:24:50.637Z</time>
      </trkpt>
      <trkpt lat="47.02629" lon="8.93839">
        <ele>880</ele>
        <time>2021-08-03T08:24:51.637Z</time>
      </trkpt>
      <trkpt lat="47.02629" lon="8.93839">
        <ele>880</ele>
        <time>2021-08-03T08:24:52.636Z</time>
      </trkpt>
      <trkpt lat="47.02629" lon="8.93839">
        <ele>880</ele>
        <time>2021-08-03T08:24:53.636Z</time>
      </trkpt>
      <trkpt lat="47.02629" lon="8.93839">
        <ele>880</ele>
        <time>2021-08-03T08:24:54.637Z</time>
      </trkpt>
      <trkpt lat="47.02629" lon="8.93838">
        <ele>880</ele>
        <time>2021-08-03T08:24:55.636Z</time>
      </trkpt>
      <trkpt lat="47.02629" lon="8.93837">
        <ele>880</ele>
        <time>2021-08-03T08:24:56.637Z</time>
      </trkpt>
      <trkpt lat="47.02629" lon="8.93836">
        <ele>880</ele>
        <time>2021-08-03T08:24:57.638Z</time>
      </trkpt>
      <trkpt lat="47.02628" lon="8.93835">
        <ele>881</ele>
        <time>2021-08-03T08:24:58.637Z</time>
      </trkpt>
      <trkpt lat="47.02627" lon="8.93834">
        <ele>881</ele>
        <time>2021-08-03T08:24:59.638Z</time>
      </trkpt>
      <trkpt lat="47.02626" lon="8.93833">
        <ele>882</ele>
        <time>2021-08-03T08:25:00.638Z</time>
      </trkpt>
      <trkpt lat="47.02626" lon="8.93832">
        <ele>882</ele>
        <time>2021-08-03T08:25:01.638Z</time>
      </trkpt>
      <trkpt lat="47.02625" lon="8.93831">
        <ele>883</ele>
        <time>2021-08-03T08:25:02.638Z</time>
      </trkpt>
      <trkpt lat="47.02625" lon="8.93829">
        <ele>884</ele>
        <time>2021-08-03T08:25:03.637Z</time>
      </trkpt>
      <trkpt lat="47.02625" lon="8.93828">
        <ele>884</ele>
        <time>2021-08-03T08:25:04.637Z</time>
      </trkpt>
      <trkpt lat="47.02624" lon="8.93827">
        <ele>884</ele>
        <time>2021-08-03T08:25:05.637Z</time>
      </trkpt>
      <trkpt lat="47.02624" lon="8.93826">
        <ele>885</ele>
        <time>2021-08-03T08:25:06.638Z</time>
      </trkpt>
      <trkpt lat="47.02623" lon="8.93825">
        <ele>885</ele>
        <time>2021-08-03T08:25:07.638Z</time>
      </trkpt>
      <trkpt lat="47.02623" lon="8.93823">
        <ele>885</ele>
        <time>2021-08-03T08:25:08.638Z</time>
      </trkpt>
      <trkpt lat="47.02623" lon="8.93822">
        <ele>886</ele>
        <time>2021-08-03T08:25:09.638Z</time>
      </trkpt>
      <trkpt lat="47.02623" lon="8.93821">
        <ele>886</ele>
        <time>2021-08-03T08:25:10.638Z</time>
      </trkpt>
      <trkpt lat="47.02622" lon="8.9382">
        <ele>886</ele>
        <time>2021-08-03T08:25:11.638Z</time>
      </trkpt>
      <trkpt lat="47.02623" lon="8.93819">
        <ele>886</ele>
        <time>2021-08-03T08:25:12.638Z</time>
      </trkpt>
      <trkpt lat="47.02623" lon="8.93818">
        <ele>886</ele>
        <time>2021-08-03T08:25:13.637Z</time>
      </trkpt>
      <trkpt lat="47.02623" lon="8.93817">
        <ele>887</ele>
        <time>2021-08-03T08:25:14.638Z</time>
      </trkpt>
      <trkpt lat="47.02623" lon="8.93816">
        <ele>887</ele>
        <time>2021-08-03T08:25:15.638Z</time>
      </trkpt>
      <trkpt lat="47.02622" lon="8.93815">
        <ele>887</ele>
        <time>2021-08-03T08:25:16.638Z</time>
      </trkpt>
      <trkpt lat="47.02622" lon="8.93814">
        <ele>886</ele>
        <time>2021-08-03T08:25:17.638Z</time>
      </trkpt>
      <trkpt lat="47.02622" lon="8.93812">
        <ele>886</ele>
        <time>2021-08-03T08:25:18.637Z</time>
      </trkpt>
      <trkpt lat="47.02622" lon="8.93811">
        <ele>886</ele>
        <time>2021-08-03T08:25:19.637Z</time>
      </trkpt>
      <trkpt lat="47.02621" lon="8.9381">
        <ele>885</ele>
        <time>2021-08-03T08:25:20.638Z</time>
      </trkpt>
      <trkpt lat="47.0262" lon="8.93809">
        <ele>885</ele>
        <time>2021-08-03T08:25:21.637Z</time>
      </trkpt>
      <trkpt lat="47.0262" lon="8.93807">
        <ele>885</ele>
        <time>2021-08-03T08:25:22.637Z</time>
      </trkpt>
      <trkpt lat="47.0262" lon="8.93805">
        <ele>885</ele>
        <time>2021-08-03T08:25:23.638Z</time>
      </trkpt>
      <trkpt lat="47.0262" lon="8.93803">
        <ele>885</ele>
        <time>2021-08-03T08:25:24.637Z</time>
      </trkpt>
      <trkpt lat="47.02619" lon="8.93802">
        <ele>885</ele>
        <time>2021-08-03T08:25:25.638Z</time>
      </trkpt>
      <trkpt lat="47.02619" lon="8.93801">
        <ele>886</ele>
        <time>2021-08-03T08:25:26.638Z</time>
      </trkpt>
      <trkpt lat="47.02618" lon="8.93801">
        <ele>886</ele>
        <time>2021-08-03T08:25:27.638Z</time>
      </trkpt>
      <trkpt lat="47.02617" lon="8.93799">
        <ele>886</ele>
        <time>2021-08-03T08:25:28.637Z</time>
      </trkpt>
      <trkpt lat="47.02617" lon="8.93797">
        <ele>886</ele>
        <time>2021-08-03T08:25:29.637Z</time>
      </trkpt>
      <trkpt lat="47.02617" lon="8.93796">
        <ele>886</ele>
        <time>2021-08-03T08:25:30.638Z</time>
      </trkpt>
      <trkpt lat="47.02616" lon="8.93795">
        <ele>886</ele>
        <time>2021-08-03T08:25:31.638Z</time>
      </trkpt>
      <trkpt lat="47.02615" lon="8.93793">
        <ele>886</ele>
        <time>2021-08-03T08:25:32.638Z</time>
      </trkpt>
      <trkpt lat="47.02615" lon="8.93792">
        <ele>886</ele>
        <time>2021-08-03T08:25:33.637Z</time>
      </trkpt>
      <trkpt lat="47.02614" lon="8.9379">
        <ele>886</ele>
        <time>2021-08-03T08:25:34.638Z</time>
      </trkpt>
      <trkpt lat="47.02614" lon="8.93788">
        <ele>886</ele>
        <time>2021-08-03T08:25:35.638Z</time>
      </trkpt>
      <trkpt lat="47.02614" lon="8.93787">
        <ele>887</ele>
        <time>2021-08-03T08:25:36.637Z</time>
      </trkpt>
      <trkpt lat="47.02614" lon="8.93785">
        <ele>887</ele>
        <time>2021-08-03T08:25:37.638Z</time>
      </trkpt>
      <trkpt lat="47.02614" lon="8.93783">
        <ele>886</ele>
        <time>2021-08-03T08:25:38.638Z</time>
      </trkpt>
      <trkpt lat="47.02614" lon="8.93782">
        <ele>886</ele>
        <time>2021-08-03T08:25:39.638Z</time>
      </trkpt>
      <trkpt lat="47.02614" lon="8.9378">
        <ele>886</ele>
        <time>2021-08-03T08:25:40.638Z</time>
      </trkpt>
      <trkpt lat="47.02614" lon="8.93779">
        <ele>886</ele>
        <time>2021-08-03T08:25:41.638Z</time>
      </trkpt>
      <trkpt lat="47.02613" lon="8.93777">
        <ele>886</ele>
        <time>2021-08-03T08:25:42.638Z</time>
      </trkpt>
      <trkpt lat="47.02613" lon="8.93776">
        <ele>887</ele>
        <time>2021-08-03T08:25:43.638Z</time>
      </trkpt>
      <trkpt lat="47.02613" lon="8.93775">
        <ele>887</ele>
        <time>2021-08-03T08:25:44.637Z</time>
      </trkpt>
      <trkpt lat="47.02613" lon="8.93773">
        <ele>887</ele>
        <time>2021-08-03T08:25:45.637Z</time>
      </trkpt>
      <trkpt lat="47.02614" lon="8.93772">
        <ele>887</ele>
        <time>2021-08-03T08:25:46.638Z</time>
      </trkpt>
      <trkpt lat="47.02614" lon="8.93771">
        <ele>887</ele>
        <time>2021-08-03T08:25:47.638Z</time>
      </trkpt>
      <trkpt lat="47.02614" lon="8.93769">
        <ele>887</ele>
        <time>2021-08-03T08:25:48.638Z</time>
      </trkpt>
      <trkpt lat="47.02613" lon="8.93768">
        <ele>888</ele>
        <time>2021-08-03T08:25:49.638Z</time>
      </trkpt>
      <trkpt lat="47.02613" lon="8.93767">
        <ele>888</ele>
        <time>2021-08-03T08:25:50.638Z</time>
      </trkpt>
      <trkpt lat="47.02613" lon="8.93766">
        <ele>888</ele>
        <time>2021-08-03T08:25:51.638Z</time>
      </trkpt>
      <trkpt lat="47.02613" lon="8.93764">
        <ele>888</ele>
        <time>2021-08-03T08:25:52.638Z</time>
      </trkpt>
      <trkpt lat="47.02613" lon="8.93762">
        <ele>888</ele>
        <time>2021-08-03T08:25:53.638Z</time>
      </trkpt>
      <trkpt lat="47.02612" lon="8.9376">
        <ele>888</ele>
        <time>2021-08-03T08:25:54.638Z</time>
      </trkpt>
      <trkpt lat="47.02612" lon="8.93758">
        <ele>888</ele>
        <time>2021-08-03T08:25:55.637Z</time>
      </trkpt>
      <trkpt lat="47.02612" lon="8.93756">
        <ele>889</ele>
        <time>2021-08-03T08:25:56.638Z</time>
      </trkpt>
      <trkpt lat="47.02612" lon="8.93755">
        <ele>889</ele>
        <time>2021-08-03T08:25:57.637Z</time>
      </trkpt>
      <trkpt lat="47.02612" lon="8.93754">
        <ele>889</ele>
        <time>2021-08-03T08:25:58.638Z</time>
      </trkpt>
      <trkpt lat="47.02612" lon="8.93752">
        <ele>889</ele>
        <time>2021-08-03T08:25:59.638Z</time>
      </trkpt>
      <trkpt lat="47.02611" lon="8.93751">
        <ele>889</ele>
        <time>2021-08-03T08:26:00.638Z</time>
      </trkpt>
    </trkseg>
  </trk>
</gpx>